createdAt,value
2018-04-08T00:01:07.916Z,11.67
2018-04-08T00:02:17.939Z,11.73
2018-04-08T00:03:27.687Z,11.75
2018-04-08T00:04:37.437Z,11.79
2018-04-08T00:05:47.188Z,11.75
2018-04-08T00:06:57.189Z,11.71
2018-04-08T00:08:07.216Z,11.76
2018-04-08T00:09:16.979Z,11.82
2018-04-08T00:10:26.732Z,11.79
2018-04-08T00:11:36.743Z,11.88
2018-04-08T00:12:46.759Z,11.84
2018-04-08T00:13:56.770Z,11.89
2018-04-08T00:15:06.781Z,11.95
2018-04-08T00:16:16.862Z,11.82
2018-04-08T00:17:26.888Z,11.94
2018-04-08T00:18:36.745Z,11.86
2018-04-08T00:19:46.644Z,11.88
2018-04-08T00:20:56.451Z,11.86
2018-04-08T00:22:06.200Z,11.89
2018-04-08T00:23:16.057Z,11.89
2018-04-08T00:24:26.092Z,11.78
2018-04-08T00:25:36.103Z,11.7
2018-04-08T00:26:45.880Z,11.82
2018-04-08T00:27:55.862Z,11.71
2018-04-08T00:29:06.242Z,11.78
2018-04-08T00:30:16.034Z,11.81
2018-04-08T00:31:25.797Z,11.75
2018-04-08T00:32:35.801Z,11.78
2018-04-08T00:33:45.566Z,11.76
2018-04-08T00:34:55.338Z,11.81
2018-04-08T00:36:05.349Z,11.81
2018-04-08T00:37:14.838Z,11.78
2018-04-08T00:38:24.861Z,11.78
2018-04-08T00:39:34.624Z,11.84
2018-04-08T00:40:44.642Z,11.78
2018-04-08T00:41:54.661Z,11.85
2018-04-08T00:43:04.905Z,11.86
2018-04-08T00:44:14.927Z,11.82
2018-04-08T00:45:24.425Z,11.85
2018-04-08T00:46:34.439Z,11.85
2018-04-08T00:47:44.452Z,11.84
2018-04-08T00:48:54.216Z,11.91
2018-04-08T00:50:03.978Z,11.82
2018-04-08T00:51:13.764Z,11.82
2018-04-08T00:52:23.759Z,11.88
2018-04-08T00:53:33.772Z,11.86
2018-04-08T00:54:43.513Z,11.85
2018-04-08T00:55:53.533Z,11.86
2018-04-08T00:57:03.376Z,11.89
2018-04-08T00:58:13.392Z,11.94
2018-04-08T00:59:23.402Z,11.95
2018-04-08T01:00:32.648Z,11.91
2018-04-08T01:01:42.609Z,11.89
2018-04-08T01:02:52.676Z,11.85
2018-04-08T01:04:03.160Z,11.91
2018-04-08T01:05:13.159Z,11.89
2018-04-08T01:06:23.170Z,11.95
2018-04-08T01:07:32.935Z,11.91
2018-04-08T01:08:42.953Z,11.94
2018-04-08T01:09:52.955Z,11.89
2018-04-08T01:11:02.726Z,12
2018-04-08T01:12:12.486Z,11.98
2018-04-08T01:13:22.513Z,12.04
2018-04-08T01:14:32.327Z,12.05
2018-04-08T01:15:42.090Z,12.1
2018-04-08T01:16:51.858Z,12.1
2018-04-08T01:18:01.617Z,12.03
2018-04-08T01:19:11.621Z,12.11
2018-04-08T01:20:21.419Z,12.03
2018-04-08T01:21:31.165Z,12.07
2018-04-08T01:22:40.660Z,12.03
2018-04-08T01:23:50.154Z,12.05
2018-04-08T01:24:59.917Z,12.07
2018-04-08T01:26:09.732Z,12.1
2018-04-08T01:27:19.751Z,12.07
2018-04-08T01:28:29.506Z,12.07
2018-04-08T01:29:39.511Z,12
2018-04-08T01:30:49.505Z,12.03
2018-04-08T01:31:59.536Z,12.01
2018-04-08T01:33:09.037Z,12.1
2018-04-08T01:34:19.081Z,11.97
2018-04-08T01:35:29.160Z,12.05
2018-04-08T01:36:39.244Z,12.05
2018-04-08T01:37:49.038Z,11.91
2018-04-08T01:38:59.098Z,11.95
2018-04-08T01:40:08.907Z,12
2018-04-08T01:41:18.715Z,11.94
2018-04-08T01:42:28.528Z,11.94
2018-04-08T01:43:38.064Z,11.95
2018-04-08T01:44:48.200Z,11.95
2018-04-08T01:45:58.018Z,11.88
2018-04-08T01:47:07.839Z,12.04
2018-04-08T01:48:17.386Z,12.03
2018-04-08T01:49:27.195Z,11.98
2018-04-08T01:50:37.001Z,12.04
2018-04-08T01:51:46.585Z,12.03
2018-04-08T01:52:56.654Z,12.01
2018-04-08T01:54:06.726Z,12.01
2018-04-08T01:55:16.854Z,12.05
2018-04-08T01:56:26.927Z,11.98
2018-04-08T01:57:36.999Z,12.01
2018-04-08T01:58:46.813Z,12.04
2018-04-08T01:59:59.216Z,12.07
2018-04-08T02:01:10.306Z,12.04
2018-04-08T02:02:20.562Z,12.04
2018-04-08T02:03:30.640Z,12.01
2018-04-08T02:04:40.436Z,12.13
2018-04-08T02:05:50.495Z,12.08
2018-04-08T02:07:00.649Z,12.08
2018-04-08T02:08:10.718Z,12.16
2018-04-08T02:09:20.802Z,12.15
2018-04-08T02:10:30.894Z,12.11
2018-04-08T02:11:40.688Z,12.2
2018-04-08T02:12:50.774Z,12.2
2018-04-08T02:14:00.582Z,12.11
2018-04-08T02:15:10.658Z,12.23
2018-04-08T02:16:20.465Z,12.25
2018-04-08T02:17:30.261Z,12.2
2018-04-08T02:18:40.398Z,12.22
2018-04-08T02:19:49.680Z,12.23
2018-04-08T02:20:59.738Z,12.38
2018-04-08T02:22:09.299Z,12.36
2018-04-08T02:23:19.106Z,12.34
2018-04-08T02:24:28.992Z,12.33
2018-04-08T02:25:38.795Z,12.38
2018-04-08T02:26:48.375Z,12.47
2018-04-08T02:27:58.463Z,12.43
2018-04-08T02:29:08.289Z,12.45
2018-04-08T02:30:18.371Z,12.43
2018-04-08T02:31:28.188Z,12.43
2018-04-08T02:32:38.316Z,12.48
2018-04-08T02:33:47.855Z,12.43
2018-04-08T02:34:57.677Z,12.44
2018-04-08T02:36:07.485Z,12.47
2018-04-08T02:37:17.292Z,12.48
2018-04-08T02:38:27.368Z,12.41
2018-04-08T02:39:37.203Z,12.47
2018-04-08T02:40:47.303Z,12.47
2018-04-08T02:41:57.426Z,12.43
2018-04-08T02:43:07.509Z,12.45
2018-04-08T02:44:17.316Z,12.51
2018-04-08T02:45:27.125Z,12.51
2018-04-08T02:46:36.966Z,12.47
2018-04-08T02:47:47.118Z,12.55
2018-04-08T02:48:56.923Z,12.51
2018-04-08T02:50:07.006Z,12.41
2018-04-08T02:51:17.081Z,12.44
2018-04-08T02:52:27.147Z,12.4
2018-04-08T02:53:37.305Z,12.47
2018-04-08T02:54:47.120Z,12.41
2018-04-08T02:55:57.189Z,12.28
2018-04-08T02:57:07.003Z,12.38
2018-04-08T02:58:17.091Z,12.23
2018-04-08T02:59:27.242Z,12.22
2018-04-08T03:00:37.315Z,12.19
2018-04-08T03:01:46.853Z,12.13
2018-04-08T03:33:42.081Z,9.19
2018-04-08T03:34:52.129Z,9.26
2018-04-08T03:36:02.212Z,9.19
2018-04-08T03:37:12.279Z,9.29
2018-04-08T03:38:22.084Z,9.24
2018-04-08T03:39:32.217Z,9.45
2018-04-08T03:40:41.749Z,9.55
2018-04-08T03:41:51.831Z,9.64
2018-04-08T03:43:01.373Z,9.81
2018-04-08T03:44:11.179Z,9.88
2018-04-08T03:45:20.984Z,10.07
2018-04-08T03:46:30.802Z,10.2
2018-04-08T03:47:40.876Z,10.28
2018-04-08T03:48:50.953Z,10.44
2018-04-08T03:50:00.768Z,10.58
2018-04-08T03:51:10.313Z,10.67
2018-04-08T03:52:20.133Z,10.77
2018-04-08T03:53:29.927Z,10.84
2018-04-08T03:54:39.757Z,10.84
2018-04-08T03:55:49.295Z,10.95
2018-04-08T03:56:59.562Z,11
2018-04-08T03:58:09.376Z,10.9
2018-04-08T03:59:19.174Z,11.08
2018-04-08T04:00:28.717Z,10.94
2018-04-08T04:01:38.284Z,11.02
2018-04-08T04:02:48.407Z,11.03
2018-04-08T04:03:58.217Z,11.05
2018-04-08T04:05:08.291Z,11.16
2018-04-08T04:06:18.362Z,11.09
2018-04-08T04:07:28.176Z,11.18
2018-04-08T04:08:38.290Z,11.18
2018-04-08T04:09:48.360Z,11.13
2018-04-08T04:10:58.429Z,11.12
2018-04-08T04:12:08.244Z,11.16
2018-04-08T04:13:17.538Z,11.16
2018-04-08T04:14:27.087Z,11.21
2018-04-08T04:15:36.901Z,11.2
2018-04-08T04:16:46.477Z,11.18
2018-04-08T04:17:56.005Z,11.15
2018-04-08T04:19:05.564Z,11.1
2018-04-08T04:20:15.619Z,11.1
2018-04-08T04:21:25.438Z,11.1
2018-04-08T04:22:35.509Z,11.08
2018-04-08T04:23:45.578Z,11.1
2018-04-08T04:24:55.648Z,11.18
2018-04-08T04:26:05.459Z,11.18
2018-04-08T04:27:14.991Z,11.16
2018-04-08T04:28:25.045Z,11.2
2018-04-08T04:29:35.116Z,11.21
2018-04-08T04:30:44.922Z,11.16
2018-04-08T04:31:55.042Z,11.28
2018-04-08T04:33:04.871Z,11.2
2018-04-08T04:34:14.440Z,11.21
2018-04-08T04:35:24.521Z,11.23
2018-04-08T04:36:34.586Z,11.23
2018-04-08T04:37:44.418Z,11.23
2018-04-08T04:38:54.325Z,11.23
2018-04-08T04:40:04.122Z,11.31
2018-04-08T04:41:14.192Z,11.33
2018-04-08T04:42:23.723Z,11.43
2018-04-08T04:43:33.573Z,11.42
2018-04-08T04:44:43.375Z,11.35
2018-04-08T04:45:53.447Z,11.46
2018-04-08T04:47:03.236Z,11.49
2018-04-08T04:48:13.063Z,11.49
2018-04-08T04:49:23.192Z,11.46
2018-04-08T04:50:33.262Z,11.49
2018-04-08T04:51:42.816Z,11.64
2018-04-08T04:52:52.891Z,11.68
2018-04-08T04:54:02.688Z,11.67
2018-04-08T04:55:12.258Z,11.67
2018-04-08T04:56:22.322Z,11.78
2018-04-08T04:57:31.858Z,11.75
2018-04-08T04:58:41.383Z,11.78
2018-04-08T04:59:51.192Z,11.75
2018-04-08T05:01:00.208Z,11.81
2018-04-08T05:02:10.005Z,11.79
2018-04-08T05:03:19.278Z,11.91
2018-04-08T05:04:29.354Z,11.88
2018-04-08T05:05:39.428Z,11.97
2018-04-08T05:06:49.225Z,12
2018-04-08T05:07:59.301Z,12.08
2018-04-08T05:09:09.385Z,12.13
2018-04-08T05:10:19.462Z,12.19
2018-04-08T05:11:29.302Z,12.19
2018-04-08T05:12:39.375Z,12.19
2018-04-08T05:13:49.449Z,12.25
2018-04-08T05:14:59.320Z,12.2
2018-04-08T05:16:09.398Z,12.22
2018-04-08T05:17:18.951Z,12.37
2018-04-08T05:18:29.098Z,12.34
2018-04-08T05:19:38.665Z,12.37
2018-04-08T05:20:48.201Z,12.34
2018-04-08T05:21:58.015Z,12.36
2018-04-08T05:23:08.153Z,12.55
2018-04-08T05:24:18.061Z,12.52
2018-04-08T05:25:27.605Z,12.51
2018-04-08T05:26:37.145Z,12.53
2018-04-08T05:27:47.220Z,12.61
2018-04-08T05:28:56.772Z,12.61
2018-04-08T05:30:06.376Z,12.71
2018-04-08T05:31:16.442Z,12.74
2018-04-08T05:32:26.241Z,12.83
2018-04-08T05:33:36.320Z,12.86
2018-04-08T05:34:46.123Z,12.91
2018-04-08T05:35:55.713Z,12.98
2018-04-08T05:37:05.270Z,13.02
2018-04-08T05:38:15.339Z,13.11
2018-04-08T05:39:24.885Z,13.11
2018-04-08T05:40:34.687Z,13.19
2018-04-08T05:41:44.514Z,13.25
2018-04-08T05:42:54.335Z,13.25
2018-04-08T05:44:04.134Z,13.36
2018-04-08T05:45:13.950Z,13.31
2018-04-08T05:46:23.764Z,13.37
2018-04-08T05:47:33.858Z,13.51
2018-04-08T05:48:43.671Z,13.57
2018-04-08T05:49:53.226Z,13.66
2018-04-08T05:51:03.033Z,13.73
2018-04-08T05:52:12.840Z,13.72
2018-04-08T05:53:22.457Z,13.9
2018-04-08T05:54:32.260Z,13.99
2018-04-08T05:55:42.077Z,14.11
2018-04-08T05:56:52.133Z,14.09
2018-04-08T05:58:02.316Z,14.09
2018-04-08T05:59:12.520Z,14.19
2018-04-08T06:00:22.330Z,14.21
2018-04-08T06:01:31.612Z,14.31
2018-04-08T06:02:41.143Z,14.28
2018-04-08T06:03:51.018Z,14.28
2018-04-08T06:05:01.205Z,14.46
2018-04-08T06:06:11.017Z,14.52
2018-04-08T06:07:20.579Z,14.59
2018-04-08T06:08:30.120Z,14.71
2018-04-08T06:09:39.938Z,14.66
2018-04-08T06:10:50.044Z,14.79
2018-04-08T06:12:00.128Z,14.83
2018-04-08T06:13:09.943Z,14.87
2018-04-08T06:14:19.759Z,14.9
2018-04-08T06:15:29.855Z,14.93
2018-04-08T06:16:39.965Z,14.86
2018-04-08T06:17:49.783Z,14.9
2018-04-08T06:18:59.316Z,14.94
2018-04-08T06:20:09.134Z,15.05
2018-04-08T06:21:18.943Z,15.07
2018-04-08T06:22:28.764Z,15.13
2018-04-08T06:23:38.573Z,15.08
2018-04-08T06:24:48.426Z,15.18
2018-04-08T06:25:57.995Z,15.34
2018-04-08T06:27:07.561Z,15.27
2018-04-08T06:28:17.394Z,15.33
2018-04-08T06:29:27.478Z,15.33
2018-04-08T06:30:37.338Z,15.45
2018-04-08T06:31:47.468Z,15.49
2018-04-08T06:32:57.542Z,15.45
2018-04-08T06:34:07.621Z,15.49
2018-04-08T06:35:17.696Z,15.47
2018-04-08T06:36:27.768Z,15.59
2018-04-08T06:37:37.838Z,15.67
2018-04-08T06:38:47.647Z,15.65
2018-04-08T06:39:57.210Z,15.77
2018-04-08T06:41:06.794Z,15.99
2018-04-08T06:42:16.871Z,16.11
2018-04-08T06:43:26.931Z,16.3
2018-04-08T06:44:36.568Z,16.39
2018-04-08T06:45:46.649Z,16.42
2018-04-08T06:46:56.703Z,16.54
2018-04-08T06:48:06.535Z,16.59
2018-04-08T06:49:16.351Z,16.74
2018-04-08T06:50:25.924Z,16.82
2018-04-08T06:51:36.051Z,16.92
2018-04-08T06:52:45.856Z,16.95
2018-04-08T06:53:55.674Z,16.99
2018-04-08T06:55:05.508Z,17.1
2018-04-08T06:56:15.065Z,17.13
2018-04-08T06:57:25.129Z,17.17
2018-04-08T06:58:34.936Z,17.39
2018-04-08T06:59:45.029Z,17.47
2018-04-08T07:00:55.113Z,17.55
2018-04-08T07:02:05.202Z,17.8
2018-04-08T07:03:15.358Z,17.86
2018-04-08T07:04:25.169Z,17.92
2018-04-08T07:05:34.978Z,18.01
2018-04-08T07:06:44.807Z,18.02
2018-04-08T07:07:54.366Z,18.02
2018-04-08T07:09:03.916Z,18.03
2018-04-08T07:10:13.993Z,18.16
2018-04-08T07:11:24.056Z,18.23
2018-04-08T07:12:33.612Z,18.23
2018-04-08T07:13:43.717Z,18.31
2018-04-08T07:14:53.808Z,18.14
2018-04-08T07:16:03.900Z,18.42
2018-04-08T07:17:13.996Z,18.44
2018-04-08T07:18:24.366Z,18.57
2018-04-08T07:19:34.452Z,18.71
2018-04-08T07:20:44.535Z,18.78
2018-04-08T07:21:54.615Z,18.74
2018-04-08T07:23:04.150Z,18.59
2018-04-08T07:24:13.690Z,18.5
2018-04-08T07:25:23.498Z,18.39
2018-04-08T07:26:33.362Z,18.32
2018-04-08T07:27:42.932Z,18.2
2018-04-08T07:28:53.008Z,18.17
2018-04-08T07:30:02.582Z,18.27
2018-04-08T07:31:12.409Z,18.54
2018-04-08T07:32:22.302Z,18.45
2018-04-08T07:33:32.379Z,18.27
2018-04-08T07:34:42.480Z,18.26
2018-04-08T07:35:52.043Z,18.41
2018-04-08T07:37:01.599Z,18.38
2018-04-08T07:38:11.764Z,18.31
2018-04-08T07:39:21.850Z,18.36
2018-04-08T07:40:31.947Z,18.49
2018-04-08T07:41:41.771Z,18.49
2018-04-08T07:42:51.606Z,18.69
2018-04-08T07:44:01.408Z,18.79
2018-04-08T07:45:11.496Z,18.87
2018-04-08T07:46:21.591Z,18.63
2018-04-08T07:47:31.721Z,18.76
2018-04-08T07:48:41.550Z,18.63
2018-04-08T07:49:51.692Z,18.57
2018-04-08T07:51:01.873Z,18.6
2018-04-08T07:52:11.951Z,18.57
2018-04-08T07:53:21.767Z,18.65
2018-04-08T07:54:31.891Z,18.87
2018-04-08T07:55:41.970Z,18.72
2018-04-08T07:56:51.826Z,18.71
2018-04-08T07:58:01.651Z,18.84
2018-04-08T07:59:11.884Z,18.81
2018-04-08T08:00:22.005Z,18.84
2018-04-08T08:01:32.096Z,18.87
2018-04-08T08:02:42.185Z,18.84
2018-04-08T08:03:52.021Z,18.72
2018-04-08T08:05:02.106Z,18.81
2018-04-08T08:06:11.945Z,18.81
2018-04-08T08:07:21.765Z,18.79
2018-04-08T08:08:31.845Z,18.76
2018-04-08T08:09:41.925Z,18.76
2018-04-08T08:10:52.047Z,18.69
2018-04-08T08:12:02.135Z,18.72
2018-04-08T08:13:12.212Z,18.68
2018-04-08T08:14:22.296Z,18.68
2018-04-08T08:15:32.190Z,18.81
2018-04-08T08:16:42.269Z,18.89
2018-04-08T08:17:52.357Z,18.84
2018-04-08T08:19:02.493Z,18.84
2018-04-08T08:20:12.568Z,18.9
2018-04-08T08:21:22.649Z,18.96
2018-04-08T08:22:32.711Z,18.96
2018-04-08T08:23:42.982Z,18.96
2018-04-08T08:24:53.118Z,19.06
2018-04-08T08:26:02.950Z,19.06
2018-04-08T08:27:12.778Z,19.07
2018-04-08T08:28:22.888Z,19.09
2018-04-08T08:29:32.978Z,19.09
2018-04-08T08:30:42.868Z,19.12
2018-04-08T08:31:52.998Z,19.09
2018-04-08T08:33:02.874Z,19.16
2018-04-08T08:34:12.701Z,19
2018-04-08T08:35:22.803Z,18.96
2018-04-08T08:36:32.670Z,19.06
2018-04-08T08:37:42.507Z,18.96
2018-04-08T08:38:52.341Z,19.06
2018-04-08T08:40:02.414Z,19.12
2018-04-08T08:41:12.535Z,19.09
2018-04-08T08:42:22.369Z,19.09
2018-04-08T08:43:32.534Z,19.12
2018-04-08T08:44:42.629Z,18.97
2018-04-08T08:45:52.992Z,18.96
2018-04-08T08:47:02.860Z,18.97
2018-04-08T08:48:13.055Z,18.97
2018-04-08T08:49:23.165Z,18.96
2018-04-08T08:50:33.260Z,18.94
2018-04-08T08:51:43.119Z,18.97
2018-04-08T08:52:53.245Z,18.99
2018-04-08T08:54:03.137Z,19.02
2018-04-08T08:55:12.968Z,19.13
2018-04-08T08:56:22.852Z,19.2
2018-04-08T08:57:32.531Z,19.25
2018-04-08T08:58:42.394Z,19.43
2018-04-08T08:59:52.503Z,19.37
2018-04-08T09:01:02.613Z,19.43
2018-04-08T09:02:12.448Z,19.55
2018-04-08T09:03:22.267Z,19.49
2018-04-08T09:04:32.350Z,19.5
2018-04-08T09:05:42.474Z,19.67
2018-04-08T09:06:52.344Z,19.67
2018-04-08T09:08:02.630Z,19.79
2018-04-08T09:09:12.733Z,19.78
2018-04-08T09:10:22.853Z,19.65
2018-04-08T09:11:32.739Z,19.63
2018-04-08T09:12:42.572Z,19.61
2018-04-08T09:13:52.643Z,19.61
2018-04-08T09:15:02.456Z,19.78
2018-04-08T09:16:12.288Z,19.79
2018-04-08T09:17:22.405Z,19.86
2018-04-08T09:18:32.607Z,19.9
2018-04-08T09:19:42.451Z,19.89
2018-04-08T09:20:52.561Z,19.9
2018-04-08T09:22:02.402Z,19.92
2018-04-08T09:23:11.988Z,19.92
2018-04-08T09:24:22.105Z,19.98
2018-04-08T09:25:32.231Z,19.83
2018-04-08T09:26:42.111Z,19.89
2018-04-08T09:27:52.310Z,19.92
2018-04-08T09:29:01.895Z,20.05
2018-04-08T09:30:12.053Z,20.08
2018-04-08T09:31:22.145Z,20.19
2018-04-08T09:32:32.272Z,20.29
2018-04-08T09:33:42.114Z,20.26
2018-04-08T09:34:52.249Z,20.25
2018-04-08T09:36:02.370Z,20.49
2018-04-08T09:37:12.485Z,20.44
2018-04-08T09:38:22.068Z,20.44
2018-04-08T09:39:32.176Z,20.49
2018-04-08T09:40:42.274Z,20.57
2018-04-08T09:41:52.138Z,20.53
2018-04-08T09:43:02.264Z,20.58
2018-04-08T09:44:12.385Z,20.61
2018-04-08T09:45:22.246Z,20.66
2018-04-08T09:46:32.114Z,20.58
2018-04-08T09:47:41.965Z,20.72
2018-04-08T09:48:51.799Z,20.76
2018-04-08T09:50:01.892Z,20.76
2018-04-08T09:51:11.998Z,20.76
2018-04-08T09:52:21.580Z,20.86
2018-04-08T09:53:31.429Z,20.94
2018-04-08T09:54:41.246Z,20.94
2018-04-08T09:55:51.360Z,21.01
2018-04-08T09:57:01.349Z,20.91
2018-04-08T09:58:11.536Z,21.06
2018-04-08T09:59:21.484Z,21.06
2018-04-08T10:00:31.125Z,21.11
2018-04-08T10:01:41.021Z,21.16
2018-04-08T10:02:50.953Z,21.15
2018-04-08T10:04:00.915Z,21.16
2018-04-08T10:05:11.318Z,21.22
2018-04-08T10:06:21.552Z,21.31
2018-04-08T10:07:31.558Z,21.46
2018-04-08T10:08:41.731Z,21.49
2018-04-08T10:09:52.019Z,21.49
2018-04-08T10:11:02.184Z,21.53
2018-04-08T10:12:12.472Z,21.59
2018-04-08T10:13:22.650Z,21.48
2018-04-08T10:14:32.077Z,21.46
2018-04-08T10:15:42.015Z,21.38
2018-04-08T10:16:52.694Z,21.38
2018-04-08T10:18:03.707Z,21.37
2018-04-08T10:19:15.428Z,21.38
2018-04-08T10:20:26.112Z,21.46
2018-04-08T10:21:37.553Z,21.51
2018-04-08T10:22:48.920Z,21.52
2018-04-08T10:24:00.261Z,21.61
2018-04-08T10:25:11.163Z,21.73
2018-04-08T10:26:22.269Z,21.76
2018-04-08T10:27:33.591Z,21.68
2018-04-08T10:28:44.733Z,21.8
2018-04-08T10:29:55.568Z,21.86
2018-04-08T10:31:05.981Z,21.85
2018-04-08T10:32:16.142Z,21.82
2018-04-08T10:33:27.324Z,21.99
2018-04-08T10:34:37.886Z,22.11
2018-04-08T10:35:48.017Z,22.24
2018-04-08T10:36:57.857Z,22.2
2018-04-08T10:38:07.699Z,22.23
2018-04-08T10:39:17.853Z,22.2
2018-04-08T10:40:27.709Z,22.24
2018-04-08T10:41:37.876Z,22.29
2018-04-08T10:42:47.472Z,22.29
2018-04-08T10:46:37.793Z,22.3
2018-04-08T10:47:47.970Z,22.34
2018-04-08T10:48:57.810Z,22.2
2018-04-08T10:50:07.953Z,22.24
2018-04-08T10:51:18.070Z,22.27
2018-04-08T10:52:28.168Z,22.31
2018-04-08T10:53:38.280Z,22.33
2018-04-08T10:54:48.404Z,22.41
2018-04-08T10:55:58.518Z,22.34
2018-04-08T10:57:08.611Z,22.3
2018-04-08T10:58:18.808Z,22.33
2018-04-08T10:59:28.913Z,22.31
2018-04-08T11:00:39.022Z,22.42
2018-04-08T11:01:49.136Z,22.45
2018-04-08T11:02:59.465Z,22.48
2018-04-08T11:04:09.621Z,22.49
2018-04-08T11:05:19.721Z,22.55
2018-04-08T11:06:29.836Z,22.67
2018-04-08T11:07:39.660Z,22.81
2018-04-08T11:08:49.770Z,22.81
2018-04-08T11:09:59.918Z,22.89
2018-04-08T11:11:09.760Z,22.85
2018-04-08T11:12:19.854Z,22.92
2018-04-08T11:13:29.960Z,22.85
2018-04-08T11:14:40.075Z,22.84
2018-04-08T11:15:50.215Z,22.88
2018-04-08T11:17:00.395Z,22.94
2018-04-08T11:18:10.756Z,22.99
2018-04-08T11:19:20.575Z,23.03
2018-04-08T11:20:30.691Z,23.06
2018-04-08T11:21:40.778Z,23.16
2018-04-08T11:22:50.892Z,23.24
2018-04-08T11:24:01.004Z,23.25
2018-04-08T11:25:10.597Z,23.25
2018-04-08T11:26:20.679Z,23.21
2018-04-08T11:27:30.825Z,23.25
2018-04-08T11:28:40.936Z,23.25
2018-04-08T11:29:51.407Z,23.4
2018-04-08T11:31:01.516Z,23.29
2018-04-08T11:32:11.627Z,23.45
2018-04-08T11:33:21.464Z,23.56
2018-04-08T11:34:31.498Z,23.57
2018-04-08T11:35:41.583Z,23.67
2018-04-08T11:36:51.394Z,23.62
2018-04-08T11:38:01.217Z,23.78
2018-04-08T11:39:11.107Z,23.84
2018-04-08T11:40:21.229Z,23.96
2018-04-08T11:41:30.808Z,24.07
2018-04-08T11:42:40.093Z,24.08
2018-04-08T11:43:50.187Z,24.15
2018-04-08T11:45:00.420Z,24.24
2018-04-08T11:46:10.504Z,24.3
2018-04-08T11:47:20.454Z,24.3
2018-04-08T11:48:30.359Z,24.34
2018-04-08T11:49:39.940Z,24.48
2018-04-08T11:50:50.039Z,24.61
2018-04-08T11:51:59.919Z,24.56
2018-04-08T11:53:09.750Z,24.55
2018-04-08T11:54:19.850Z,24.64
2018-04-08T11:55:29.167Z,24.71
2018-04-08T11:56:39.056Z,24.78
2018-04-08T11:57:48.902Z,24.7
2018-04-08T11:58:58.992Z,24.85
2018-04-08T12:00:09.091Z,24.87
2018-04-08T12:01:18.924Z,24.89
2018-04-08T12:02:29.057Z,24.89
2018-04-08T12:03:38.910Z,24.85
2018-04-08T12:04:48.759Z,24.83
2018-04-08T12:05:58.318Z,24.77
2018-04-08T12:07:08.417Z,24.77
2018-04-08T12:08:18.585Z,24.74
2018-04-08T12:09:28.691Z,24.8
2018-04-08T12:10:38.531Z,24.75
2018-04-08T12:11:48.693Z,24.78
2018-04-08T12:12:59.232Z,24.85
2018-04-08T12:14:09.399Z,24.87
2018-04-08T12:15:19.494Z,24.83
2018-04-08T12:16:29.868Z,24.89
2018-04-08T12:17:39.982Z,24.78
2018-04-08T12:18:50.072Z,24.82
2018-04-08T12:20:00.205Z,24.87
2018-04-08T12:21:10.769Z,24.82
2018-04-08T12:22:20.856Z,24.83
2018-04-08T12:23:31.190Z,24.82
2018-04-08T12:24:41.029Z,24.93
2018-04-08T12:25:51.198Z,24.82
2018-04-08T12:27:01.311Z,24.89
2018-04-08T12:28:10.901Z,24.87
2018-04-08T12:29:20.722Z,24.85
2018-04-08T12:30:30.545Z,24.86
2018-04-08T12:31:40.443Z,24.82
2018-04-08T12:32:50.545Z,24.89
2018-04-08T12:34:00.118Z,24.86
2018-04-08T12:35:09.967Z,25.01
2018-04-08T12:36:20.051Z,24.96
2018-04-08T12:37:30.153Z,25.11
2018-04-08T12:38:39.994Z,25.11
2018-04-08T12:39:50.098Z,25.2
2018-04-08T12:41:00.215Z,25.29
2018-04-08T12:42:10.328Z,25.29
2018-04-08T12:43:20.487Z,25.44
2018-04-08T12:44:30.634Z,25.54
2018-04-08T12:45:40.462Z,25.51
2018-04-08T12:46:50.035Z,25.59
2018-04-08T12:47:59.851Z,25.54
2018-04-08T12:49:09.937Z,25.54
2018-04-08T12:50:19.512Z,25.49
2018-04-08T12:51:29.340Z,25.57
2018-04-08T12:52:38.644Z,25.56
2018-04-08T12:53:48.734Z,25.48
2018-04-08T12:54:59.191Z,25.48
2018-04-08T12:56:09.011Z,25.38
2018-04-08T12:57:19.147Z,25.33
2018-04-08T12:58:29.354Z,25.39
2018-04-08T12:59:39.464Z,25.45
2018-04-08T13:00:49.589Z,25.47
2018-04-08T13:01:59.691Z,25.44
2018-04-08T13:03:09.549Z,25.37
2018-04-08T13:04:19.386Z,25.3
2018-04-08T13:05:28.960Z,25.34
2018-04-08T13:06:39.129Z,25.41
2018-04-08T13:07:49.290Z,25.45
2018-04-08T13:08:59.411Z,25.54
2018-04-08T13:10:09.249Z,25.57
2018-04-08T13:11:19.364Z,25.59
2018-04-08T13:12:29.183Z,25.59
2018-04-08T13:13:38.496Z,25.63
2018-04-08T13:14:48.597Z,25.57
2018-04-08T13:15:58.987Z,25.56
2018-04-08T13:17:09.102Z,25.6
2018-04-08T13:18:19.413Z,25.66
2018-04-08T13:19:29.534Z,25.64
2018-04-08T13:20:39.380Z,25.7
2018-04-08T13:21:49.483Z,25.7
2018-04-08T13:22:59.320Z,25.76
2018-04-08T13:24:09.207Z,25.67
2018-04-08T13:25:19.336Z,25.66
2018-04-08T13:26:29.467Z,25.63
2018-04-08T13:27:39.593Z,25.75
2018-04-08T13:28:49.708Z,25.64
2018-04-08T13:29:59.789Z,25.64
2018-04-08T13:31:09.358Z,25.76
2018-04-08T13:32:19.482Z,25.74
2018-04-08T13:33:29.583Z,25.74
2018-04-08T13:34:39.693Z,25.67
2018-04-08T13:35:49.784Z,25.74
2018-04-08T13:36:59.637Z,25.84
2018-04-08T13:38:09.477Z,25.84
2018-04-08T13:39:19.301Z,25.81
2018-04-08T13:40:28.871Z,25.76
2018-04-08T13:41:38.956Z,25.81
2018-04-08T13:42:49.058Z,25.7
2018-04-08T13:43:58.918Z,25.71
2018-04-08T13:45:09.048Z,25.78
2018-04-08T13:46:19.172Z,25.76
2018-04-08T13:47:29.272Z,25.7
2018-04-08T13:48:39.089Z,25.6
2018-04-08T13:49:49.438Z,25.69
2018-04-08T13:50:59.285Z,25.71
2018-04-08T13:52:09.114Z,25.74
2018-04-08T13:53:18.694Z,25.62
2018-04-08T13:54:28.886Z,25.57
2018-04-08T13:55:38.463Z,25.67
2018-04-08T13:56:48.559Z,25.66
2018-04-08T13:57:58.682Z,25.57
2018-04-08T13:59:08.335Z,25.64
2018-04-08T14:00:18.437Z,25.63
2018-04-08T14:01:28.718Z,25.76
2018-04-08T14:02:38.890Z,25.69
2018-04-08T14:03:48.727Z,25.74
2018-04-08T14:04:58.849Z,25.84
2018-04-08T14:06:08.696Z,25.78
2018-04-08T14:07:18.789Z,25.82
2018-04-08T14:08:28.913Z,25.84
2018-04-08T14:09:38.735Z,25.79
2018-04-08T14:10:48.860Z,25.76
2018-04-08T14:11:58.972Z,25.69
2018-04-08T14:13:08.820Z,25.63
2018-04-08T14:14:18.679Z,25.67
2018-04-08T14:15:29.177Z,25.59
2018-04-08T14:16:39.000Z,25.66
2018-04-08T14:17:49.106Z,25.62
2018-04-08T14:18:59.427Z,25.66
2018-04-08T14:20:09.283Z,25.69
2018-04-08T14:21:19.383Z,25.66
2018-04-08T14:22:29.001Z,25.59
2018-04-08T14:23:38.817Z,25.62
2018-04-08T14:24:48.682Z,25.67
2018-04-08T14:25:58.777Z,25.67
2018-04-08T14:27:08.884Z,25.71
2018-04-08T14:28:18.925Z,25.7
2018-04-08T14:29:29.034Z,25.74
2018-04-08T14:30:38.889Z,25.67
2018-04-08T14:31:48.738Z,25.71
2018-04-08T14:32:58.565Z,25.67
2018-04-08T14:34:08.733Z,25.57
2018-04-08T14:35:18.826Z,25.6
2018-04-08T14:36:28.962Z,25.6
2018-04-08T14:37:39.084Z,25.71
2018-04-08T14:38:49.418Z,25.7
2018-04-08T14:39:59.303Z,25.71
2018-04-08T14:41:09.417Z,25.7
2018-04-08T14:42:19.241Z,25.57
2018-04-08T14:43:29.079Z,25.63
2018-04-08T14:44:38.915Z,25.54
2018-04-08T14:45:48.492Z,25.49
2018-04-08T14:46:58.083Z,25.51
2018-04-08T14:48:07.933Z,25.44
2018-04-08T14:49:18.057Z,25.38
2018-04-08T14:50:27.620Z,25.44
2018-04-08T14:51:37.718Z,25.45
2018-04-08T14:52:47.814Z,25.42
2018-04-08T14:53:57.653Z,25.38
2018-04-08T14:55:08.547Z,25.39
2018-04-08T14:56:18.367Z,25.32
2018-04-08T14:57:28.363Z,25.3
2018-04-08T14:58:38.486Z,25.29
2018-04-08T14:59:48.647Z,25.27
2018-04-08T15:00:58.248Z,25.29
2018-04-08T15:02:07.822Z,25.38
2018-04-08T15:03:18.000Z,25.41
2018-04-08T15:04:27.838Z,25.38
2018-04-08T15:05:37.820Z,25.32
2018-04-08T15:06:47.670Z,25.26
2018-04-08T15:07:57.931Z,25.2
2018-04-08T15:09:07.809Z,25.14
2018-04-08T15:10:17.673Z,25.14
2018-04-08T15:11:27.792Z,25.11
2018-04-08T15:12:37.943Z,25.22
2018-04-08T15:13:48.085Z,25.11
2018-04-08T15:14:58.243Z,25.2
2018-04-08T15:16:08.349Z,25.12
2018-04-08T15:17:18.456Z,25.19
2018-04-08T15:18:28.031Z,25.12
2018-04-08T15:19:37.870Z,25.12
2018-04-08T15:20:47.453Z,25.09
2018-04-08T15:21:57.282Z,25.08
2018-04-08T15:23:06.837Z,25.07
2018-04-08T15:24:16.404Z,25.01
2018-04-08T15:25:26.540Z,25.04
2018-04-08T15:26:36.691Z,25.05
2018-04-08T15:27:46.791Z,25.12
2018-04-08T15:28:56.896Z,25.04
2018-04-08T15:30:07.012Z,25.01
2018-04-08T15:31:16.858Z,25.04
2018-04-08T15:32:27.027Z,24.93
2018-04-08T15:33:36.868Z,24.97
2018-04-08T15:34:46.696Z,24.92
2018-04-08T15:35:56.776Z,24.9
2018-04-08T15:37:06.914Z,24.9
2018-04-08T15:38:17.393Z,24.86